Time;durP1;ratioP1;P1;durP2;ratioP2;P2;SDS_P1;SDS_P2;PMS_P1;PMS_P2;Temp;Humidity;BMP_temperature;BMP_pressure;BME280_temperature;BME280_humidity;BME280_pressure;Samples;Min_cycle;Max_cycle;Signal;HPM_P1;HPM_P2
2022/05/13 00:01:52;;;;;;;8.60;3.08;;;;;;;10.61;72.16;101873.13;1788174;80;21064;-65
2022/05/13 00:04:21;;;;;;;7.65;2.40;;;;;;;10.61;72.06;101875.30;1788195;80;21076;-64
2022/05/13 00:06:50;;;;;;;3.75;2.00;;;;;;;10.60;72.22;101882.80;1788085;80;21064;-66
2022/05/13 00:09:19;;;;;;;5.30;3.37;;;;;;;10.61;72.66;101879.25;1797852;80;21266;-67
2022/05/13 00:11:47;;;;;;;5.47;2.33;;;;;;;10.62;72.85;101871.78;1799225;80;21051;-62
2022/05/13 00:14:16;;;;;;;2.87;1.50;;;;;;;10.61;72.84;101875.30;1799378;79;21490;-64
2022/05/13 00:16:45;;;;;;;5.03;3.47;;;;;;;10.61;72.93;101886.29;1761104;81;21122;-69
2022/05/13 00:19:14;;;;;;;3.40;2.17;;;;;;;10.61;72.95;101879.70;1774777;81;21069;-66
2022/05/13 00:21:42;;;;;;;3.80;2.05;;;;;;;10.60;72.81;101885.86;1774542;81;21101;-67
2022/05/13 00:24:11;;;;;;;2.50;1.85;;;;;;;10.57;72.69;101882.00;1774958;81;21128;-64
2022/05/13 00:26:40;;;;;;;4.45;2.00;;;;;;;10.56;72.55;101871.02;1775101;81;21058;-67
2022/05/13 00:29:08;;;;;;;4.33;2.55;;;;;;;10.53;72.48;101880.30;1774882;81;21128;-71
2022/05/13 00:31:38;;;;;;;1.98;1.30;;;;;;;10.50;72.26;101883.02;1774925;81;21038;-68
2022/05/13 00:34:07;;;;;;;3.10;1.87;;;;;;;10.48;72.09;101873.83;1773399;81;21811;-64
2022/05/13 00:36:36;;;;;;;2.83;1.65;;;;;;;10.45;71.75;101867.30;1774886;81;21120;-63
2022/05/13 00:39:05;;;;;;;4.58;2.12;;;;;;;10.45;71.52;101863.34;1774979;81;21520;-65
2022/05/13 00:41:36;;;;;;;5.12;2.50;;;;;;;10.45;71.46;101857.22;1774687;81;21058;-64
2022/05/13 00:44:05;;;;;;;3.58;2.27;;;;;;;10.46;71.13;101865.52;1774794;81;21053;-61
2022/05/13 00:46:53;;;;;;;2.45;1.50;;;;;;;10.45;70.96;101855.91;1773895;81;21057;-58
2022/05/13 00:49:23;;;;;;;3.35;1.90;;;;;;;10.45;70.83;101858.53;1909791;75;20974;-58
2022/05/13 00:51:51;;;;;;;3.80;2.22;;;;;;;10.43;70.86;101842.30;1902800;75;21175;-61
2022/05/13 00:54:20;;;;;;;8.68;2.62;;;;;;;10.41;70.83;101828.31;1872300;76;21027;-61
2022/05/13 00:56:50;;;;;;;4.25;2.25;;;;;;;10.40;70.51;101843.70;1859265;76;21124;-61
2022/05/13 00:59:21;;;;;;;4.42;2.30;;;;;;;10.37;70.41;101840.27;1853201;77;21575;-61
2022/05/13 01:01:50;;;;;;;3.83;2.08;;;;;;;10.36;70.46;101834.57;1853451;77;21124;-62
2022/05/13 01:04:21;;;;;;;4.22;2.33;;;;;;;10.34;70.27;101837.23;1853190;77;21058;-61
2022/05/13 01:06:53;;;;;;;4.75;2.40;;;;;;;10.34;70.05;101840.32;1853200;77;21088;-61
2022/05/13 01:09:22;;;;;;;1.52;1.30;;;;;;;10.33;69.89;101839.46;1853238;77;21026;-61
2022/05/13 01:11:54;;;;;;;2.75;1.37;;;;;;;10.36;69.77;101835.89;1853250;77;21535;-63
2022/05/13 01:14:25;;;;;;;5.47;2.05;;;;;;;10.36;69.55;101843.33;1853261;77;21089;-61
2022/05/13 01:19:40;;;;;;;2.25;1.77;;;;;;;10.40;69.13;101842.81;1853108;77;21054;-60
2022/05/13 01:22:18;;;;;;;4.50;2.50;;;;;;;10.40;68.97;101850.72;1853210;77;21042;-60
2022/05/13 01:24:46;;;;;;;4.45;2.90;;;;;;;10.38;68.85;101845.51;1853253;77;21093;-61
2022/05/13 01:27:15;;;;;;;2.98;2.02;;;;;;;10.36;68.85;101847.73;1853220;77;21131;-63
2022/05/13 01:29:44;;;;;;;4.72;2.40;;;;;;;10.34;68.79;101837.23;1853229;77;21046;-64
2022/05/13 01:32:12;;;;;;;6.12;2.40;;;;;;;10.32;68.78;101839.48;1853194;77;21140;-65
2022/05/13 01:34:42;;;;;;;3.87;1.42;;;;;;;10.31;68.72;101841.27;1850744;77;21461;-63
2022/05/13 01:37:11;;;;;;;3.95;2.52;;;;;;;10.30;68.65;101845.20;1853469;77;21050;-61
2022/05/13 01:39:39;;;;;;;5.03;1.80;;;;;;;10.27;68.60;101843.94;1827434;77;21010;-61
2022/05/13 01:42:27;;;;;;;4.45;1.82;;;;;;;10.23;68.42;101840.05;1853400;77;21125;-61
2022/05/13 01:44:57;;;;;;;5.20;2.77;;;;;;;10.20;68.19;101840.58;1886673;76;21476;-61
2022/05/13 01:47:26;;;;;;;8.33;2.67;;;;;;;10.18;67.86;101835.77;1883198;76;21024;-61
2022/05/13 01:49:54;;;;;;;4.10;1.87;;;;;;;10.17;67.57;101834.05;1899621;75;21022;-62
2022/05/13 01:52:23;;;;;;;1.45;0.90;;;;;;;10.17;67.12;101822.20;1894739;75;21028;-61
2022/05/13 01:54:52;;;;;;;3.37;1.67;;;;;;;10.22;66.76;101820.36;1852881;77;21565;-60
2022/05/13 01:57:21;;;;;;;3.45;1.60;;;;;;;10.31;65.46;101828.10;1891530;76;21165;-60
2022/05/13 01:59:50;;;;;;;1.92;1.30;;;;;;;10.42;64.73;101813.37;1876439;76;21064;-60
2022/05/13 02:02:18;;;;;;;2.25;1.32;;;;;;;10.52;64.08;101824.59;1891523;76;21047;-61
2022/05/13 02:04:47;;;;;;;2.12;1.20;;;;;;;10.60;63.23;101822.22;1891427;76;21060;-60
2022/05/13 02:07:16;;;;;;;1.07;0.95;;;;;;;10.68;63.29;101823.36;1891394;76;21056;-64
2022/05/13 02:09:44;;;;;;;4.40;1.45;;;;;;;10.70;62.79;101821.56;1891385;76;21048;-64
2022/05/13 02:12:13;;;;;;;0.50;0.50;;;;;;;10.74;62.49;101825.85;1891441;76;21056;-64
2022/05/13 02:14:42;;;;;;;1.47;0.95;;;;;;;10.78;62.60;101822.70;1883841;76;21099;-62
2022/05/13 02:17:11;;;;;;;1.37;0.70;;;;;;;10.77;62.73;101813.05;1874181;76;21160;-62
2022/05/13 02:19:40;;;;;;;2.83;1.10;;;;;;;10.77;62.87;101809.98;1874197;76;21082;-61
2022/05/13 02:22:08;;;;;;;1.35;1.00;;;;;;;10.86;62.72;101808.03;1874147;76;21070;-62
2022/05/13 02:24:37;;;;;;;0.98;0.82;;;;;;;10.95;62.54;101802.08;1872883;76;21046;-62
2022/05/13 02:27:06;;;;;;;2.83;1.87;;;;;;;11.07;62.49;101790.40;1891537;76;21051;-62
2022/05/13 02:29:35;;;;;;;3.58;1.27;;;;;;;11.22;62.21;101815.98;1891420;76;21490;-61
2022/05/13 02:32:05;;;;;;;4.05;1.15;;;;;;;11.33;62.38;101812.63;1891522;76;21040;-62
2022/05/13 02:34:36;;;;;;;1.35;0.80;;;;;;;11.39;61.87;101806.72;1891535;76;21047;-63
2022/05/13 02:37:06;;;;;;;2.47;1.45;;;;;;;11.43;61.82;101814.56;1891229;76;21048;-61
2022/05/13 02:39:34;;;;;;;1.27;1.00;;;;;;;11.50;61.50;101807.77;1878476;76;21051;-61
2022/05/13 02:42:03;;;;;;;1.27;1.02;;;;;;;11.64;61.76;101801.26;1874204;76;21156;-61
2022/05/13 02:44:32;;;;;;;2.08;1.20;;;;;;;11.79;61.47;101806.14;1874231;76;21250;-61
2022/05/13 02:47:00;;;;;;;1.77;0.93;;;;;;;11.94;61.03;101794.33;1874237;76;21096;-61
2022/05/13 02:49:29;;;;;;;2.72;1.30;;;;;;;12.08;60.67;101809.77;1872657;76;21018;-61
2022/05/13 02:51:58;;;;;;;4.10;1.15;;;;;;;12.22;59.99;101807.61;1874287;76;21019;-61
2022/05/13 02:54:27;;;;;;;1.37;1.02;;;;;;;12.48;59.50;101803.33;1874231;76;21050;-61
2022/05/13 02:56:55;;;;;;;2.70;1.00;;;;;;;12.74;58.90;101795.92;1874305;76;21021;-61
2022/05/13 02:59:24;;;;;;;3.12;1.32;;;;;;;12.94;58.76;101796.16;1864006;76;21106;-61
2022/05/13 03:01:54;;;;;;;3.95;1.55;;;;;;;13.13;58.90;101792.91;1864448;77;21116;-60
2022/05/13 03:04:24;;;;;;;1.20;0.85;;;;;;;13.39;58.15;101794.75;1894440;76;21141;-61
2022/05/13 03:06:53;;;;;;;5.85;1.70;;;;;;;13.40;58.20;101789.84;1852831;77;21149;-62
2022/05/13 03:09:22;;;;;;;3.33;1.27;;;;;;;13.39;58.64;101784.16;1852858;77;21071;-61
2022/05/13 03:11:52;;;;;;;7.45;0.95;;;;;;;13.36;58.40;101784.72;1852843;77;21094;-60
2022/05/13 03:14:20;;;;;;;2.83;1.02;;;;;;;13.38;58.33;101790.83;1853076;77;21480;-62
2022/05/13 03:16:49;;;;;;;1.60;1.15;;;;;;;13.44;57.94;101783.98;1859713;77;21117;-62
2022/05/13 03:19:18;;;;;;;3.40;1.77;;;;;;;13.46;56.89;101773.78;1854421;77;21072;-63
2022/05/13 03:21:47;;;;;;;1.15;1.02;;;;;;;13.51;55.67;101775.78;1852920;77;21084;-62
2022/05/13 03:24:15;;;;;;;2.42;1.35;;;;;;;13.56;55.29;101788.02;1852828;77;21129;-62
2022/05/13 03:26:44;;;;;;;1.07;0.93;;;;;;;13.63;54.85;101784.20;1853172;77;21133;-62
2022/05/13 03:29:13;;;;;;;3.20;1.47;;;;;;;13.70;55.12;101768.52;1852745;77;21091;-61
2022/05/13 03:31:42;;;;;;;3.08;1.37;;;;;;;13.77;54.63;101772.67;1852906;77;21321;-60
2022/05/13 03:34:11;;;;;;;1.90;1.27;;;;;;;13.83;54.33;101768.94;1852883;77;21048;-61
2022/05/13 03:36:39;;;;;;;3.17;1.25;;;;;;;13.89;53.38;101770.91;1852811;77;21138;-61
2022/05/13 03:39:08;;;;;;;3.55;1.55;;;;;;;13.97;53.22;101774.60;1852803;77;21060;-62
2022/05/13 03:41:37;;;;;;;2.27;1.45;;;;;;;14.03;52.33;101786.75;1859184;77;21077;-62
2022/05/13 03:44:06;;;;;;;1.15;1.00;;;;;;;14.10;52.05;101787.78;1861529;76;21038;-62
2022/05/13 03:46:35;;;;;;;1.82;1.40;;;;;;;14.20;52.45;101788.77;1871854;76;21120;-62
2022/05/13 03:49:04;;;;;;;2.58;1.17;;;;;;;14.32;52.03;101779.52;1852838;77;21074;-62
2022/05/13 03:51:33;;;;;;;2.83;1.62;;;;;;;14.42;51.56;101791.47;1852765;77;21105;-61
2022/05/13 03:54:02;;;;;;;2.05;1.00;;;;;;;14.48;49.87;101781.50;1852637;77;21572;-61
2022/05/13 03:56:31;;;;;;;2.75;1.40;;;;;;;14.61;49.68;101776.63;1852835;77;21055;-61
2022/05/13 03:59:00;;;;;;;2.83;1.02;;;;;;;14.79;48.77;101785.64;1866598;76;21451;-61
2022/05/13 04:01:29;;;;;;;4.22;1.40;;;;;;;14.95;48.59;101744.76;1853357;77;21004;-60
2022/05/13 04:03:57;;;;;;;5.42;2.02;;;;;;;15.09;46.69;101783.10;1853518;77;21032;-60
2022/05/13 04:09:12;;;;;;;7.85;1.12;;;;;;;15.40;44.80;101732.25;1853505;77;21068;-61
2022/05/13 04:17:18;;;;;;;1.60;1.00;;;;;;;15.90;43.32;101745.13;1818951;79;21027;-60
2022/05/13 04:19:47;;;;;;;5.50;1.57;;;;;;;16.08;44.13;101781.92;1835426;77;21105;-61
2022/05/13 04:22:15;;;;;;;1.35;0.93;;;;;;;16.17;42.45;101802.76;1885896;76;21079;-60
2022/05/13 04:24:44;;;;;;;1.90;1.00;;;;;;;16.25;42.14;101809.52;1885942;76;21200;-61
2022/05/13 04:27:13;;;;;;;1.55;1.00;;;;;;;16.45;42.64;101810.82;1885889;76;21041;-61
2022/05/13 04:29:41;;;;;;;4.78;1.52;;;;;;;16.64;42.28;101778.05;1883553;76;21079;-61
2022/05/13 04:32:11;;;;;;;1.72;1.00;;;;;;;16.79;42.12;101806.55;1882540;76;21140;-61
2022/05/13 04:34:40;;;;;;;0.88;0.78;;;;;;;16.79;41.73;101797.23;1882467;76;21520;-61
2022/05/13 04:37:09;;;;;;;4.47;1.17;;;;;;;16.95;41.98;101803.57;1882624;76;21054;-61
2022/05/13 04:39:38;;;;;;;4.47;1.10;;;;;;;17.13;41.93;101785.84;1880284;76;21646;-61
2022/05/13 04:44:56;;;;;;;3.58;1.00;;;;;;;17.56;41.47;101783.64;1882623;76;21027;-61
2022/05/13 04:50:12;;;;;;;3.58;1.40;;;;;;;17.91;40.46;101816.08;1882522;76;21035;-61
2022/05/13 04:52:40;;;;;;;3.52;1.20;;;;;;;18.05;40.31;101818.84;1882593;76;21172;-61
2022/05/13 04:55:10;;;;;;;3.02;1.20;;;;;;;18.03;39.10;101812.74;1858274;76;21066;-62
2022/05/13 04:57:39;;;;;;;1.72;0.88;;;;;;;18.15;38.80;101797.91;1819007;79;21509;-63
2022/05/13 05:00:08;;;;;;;1.82;1.10;;;;;;;18.02;38.47;101823.48;1817597;79;21078;-64
2022/05/13 05:02:37;;;;;;;2.02;0.98;;;;;;;17.98;37.84;101826.77;1817332;79;21142;-62
2022/05/13 05:05:07;;;;;;;3.58;1.10;;;;;;;18.00;38.07;101836.91;1869718;76;21152;-63
2022/05/13 05:07:35;;;;;;;3.25;1.02;;;;;;;18.22;38.29;101837.08;1886025;75;21189;-64
2022/05/13 05:10:07;;;;;;;1.57;0.80;;;;;;;18.19;36.62;101821.27;1886114;76;21158;-62
2022/05/13 05:12:35;;;;;;;1.22;0.85;;;;;;;18.16;36.27;101848.08;1886095;76;21064;-61
2022/05/13 05:15:06;;;;;;;1.80;1.25;;;;;;;18.23;36.71;101847.66;1886113;76;21087;-63
2022/05/13 05:17:35;;;;;;;2.65;0.90;;;;;;;18.52;37.26;101842.56;1885983;76;21029;-61
2022/05/13 05:20:05;;;;;;;3.22;1.25;;;;;;;18.77;36.33;101839.38;1865837;76;21064;-63
2022/05/13 05:22:34;;;;;;;3.02;1.55;;;;;;;18.79;35.51;101836.14;1854512;77;21122;-62
2022/05/13 05:25:03;;;;;;;3.35;1.20;;;;;;;18.75;34.09;101837.27;1854476;77;21560;-62
2022/05/13 05:27:35;;;;;;;1.45;0.93;;;;;;;18.92;34.49;101831.48;1880480;76;21114;-64
2022/05/13 05:30:03;;;;;;;1.75;1.20;;;;;;;19.06;34.90;101842.24;1885718;75;21114;-64
2022/05/13 05:32:32;;;;;;;2.15;1.45;;;;;;;19.15;33.87;101843.05;1886142;76;21513;-61
2022/05/13 05:35:01;;;;;;;2.27;0.88;;;;;;;19.36;34.22;101844.93;1886138;76;21044;-61
2022/05/13 05:37:29;;;;;;;5.85;1.67;;;;;;;19.46;33.56;101834.59;1883718;76;21523;-61
2022/05/13 05:39:58;;;;;;;5.37;1.12;;;;;;;19.46;32.82;101858.14;1886142;76;21106;-62
2022/05/13 05:42:27;;;;;;;2.67;1.10;;;;;;;19.61;33.15;101855.04;1885887;76;21100;-63
2022/05/13 05:44:55;;;;;;;2.92;1.10;;;;;;;19.76;32.86;101859.12;1886112;76;21134;-62
2022/05/13 05:47:25;;;;;;;2.42;1.12;;;;;;;19.71;32.60;101854.48;1885979;76;21065;-61
2022/05/13 05:49:54;;;;;;;3.67;1.55;;;;;;;19.67;32.25;101867.17;1886068;76;21417;-61
2022/05/13 05:52:23;;;;;;;4.00;1.02;;;;;;;19.85;32.61;101843.87;1863646;76;21102;-61
2022/05/13 05:57:39;;;;;;;7.33;1.52;;;;;;;20.06;30.79;101845.20;1819264;77;21189;-62
2022/05/13 06:00:10;;;;;;;3.70;0.90;;;;;;;20.06;30.23;101850.55;1860936;76;21056;-62
2022/05/13 06:02:39;;;;;;;2.37;1.02;;;;;;;19.99;29.68;101830.52;1839286;77;21101;-60
2022/05/13 06:05:08;;;;;;;4.53;1.10;;;;;;;19.94;29.61;101854.00;1885989;76;21056;-61
2022/05/13 06:07:36;;;;;;;1.00;0.80;;;;;;;19.92;29.01;101851.90;1885876;76;21092;-62
2022/05/13 06:10:06;;;;;;;1.37;1.07;;;;;;;20.15;30.18;101852.30;1883682;76;21122;-60
2022/05/13 06:12:34;;;;;;;5.53;1.10;;;;;;;20.30;29.51;101858.02;1886147;75;21041;-60
2022/05/13 06:15:04;;;;;;;1.67;0.70;;;;;;;20.41;29.01;101851.51;1896335;75;21082;-62
2022/05/13 06:17:32;;;;;;;2.72;1.05;;;;;;;20.50;28.92;101818.46;1885670;76;21123;-62
2022/05/13 06:20:06;;;;;;;1.82;0.90;;;;;;;20.66;28.71;101836.63;1883488;76;21032;-63
2022/05/13 06:22:35;;;;;;;5.97;1.02;;;;;;;20.66;28.38;101827.26;1900560;75;21101;-64
2022/05/13 06:25:04;;;;;;;1.92;0.80;;;;;;;20.96;29.49;101832.91;1900702;75;21446;-63
2022/05/13 06:27:33;;;;;;;0.82;0.78;;;;;;;21.16;28.61;101827.58;1873420;75;21033;-63
2022/05/13 06:30:03;;;;;;;1.72;0.72;;;;;;;21.37;28.83;101856.08;1868512;77;21138;-64
2022/05/13 06:32:32;;;;;;;4.83;1.12;;;;;;;21.73;29.21;101839.84;1868625;77;21163;-63
2022/05/13 06:35:01;;;;;;;3.77;0.72;;;;;;;21.64;27.08;101813.67;1868536;77;21049;-63
2022/05/13 06:37:29;;;;;;;4.58;0.80;;;;;;;21.33;26.49;101829.13;1870837;75;21134;-63
2022/05/13 06:39:58;;;;;;;2.27;1.30;;;;;;;21.30;27.10;101833.34;1868520;77;21048;-63
2022/05/13 06:42:27;;;;;;;6.55;1.52;;;;;;;21.45;25.90;101808.24;1868562;77;21119;-63
2022/05/13 06:44:56;;;;;;;16.80;1.50;;;;;;;21.39;26.39;101820.20;1868468;77;21466;-63
2022/05/13 06:47:24;;;;;;;3.27;1.20;;;;;;;21.38;26.38;101841.24;1870834;75;21049;-63
2022/05/13 06:49:53;;;;;;;1.30;0.82;;;;;;;21.36;26.56;101760.61;1868618;77;21059;-62
2022/05/13 06:52:21;;;;;;;2.20;0.93;;;;;;;21.61;27.16;101777.70;1868535;77;21052;-61
2022/05/13 06:54:50;;;;;;;1.87;0.88;;;;;;;21.70;26.38;101793.14;1868528;77;21071;-62
2022/05/13 06:57:19;;;;;;;2.12;0.95;;;;;;;21.81;27.16;101817.38;1870642;75;21036;-63
2022/05/13 06:59:48;;;;;;;4.72;1.00;;;;;;;21.96;26.83;101808.25;1889330;75;21148;-63
2022/05/13 07:02:22;;;;;;;7.28;1.20;;;;;;;22.14;26.48;101809.27;1890418;74;21035;-61
2022/05/13 07:04:47;;;;;;;1.35;1.07;;;;;;;22.10;25.63;101786.33;1871327;75;21142;-61
2022/05/13 07:07:16;;;;;;;0.93;0.75;;;;;;;22.21;26.30;101806.52;1878993;76;21060;-61
2022/05/13 07:09:44;;;;;;;8.30;1.20;;;;;;;22.47;26.30;101794.44;1900572;75;21102;-62
2022/05/13 07:12:13;;;;;;;2.10;0.82;;;;;;;22.65;26.23;101794.89;1900479;75;21039;-62
2022/05/13 07:14:42;;;;;;;2.87;0.80;;;;;;;22.77;26.37;101809.25;1899033;75;21036;-61
2022/05/13 07:17:10;;;;;;;2.25;1.00;;;;;;;23.03;26.44;101800.59;1894335;76;21048;-62
2022/05/13 07:22:29;;;;;;;4.08;0.90;;;;;;;23.44;25.55;101786.74;1881247;76;21472;-61
2022/05/13 07:24:58;;;;;;;6.25;1.00;;;;;;;23.16;24.70;101805.94;1881139;76;21516;-61
2022/05/13 07:27:26;;;;;;;2.05;0.68;;;;;;;22.92;24.47;101790.65;1881225;76;21127;-61
2022/05/13 07:29:55;;;;;;;1.50;0.70;;;;;;;22.87;24.68;101791.02;1881216;76;21111;-61
2022/05/13 07:32:24;;;;;;;5.30;0.95;;;;;;;22.89;24.62;101807.02;1881277;76;21030;-61
2022/05/13 07:34:52;;;;;;;2.35;1.27;;;;;;;22.92;25.23;101802.73;1881243;76;21045;-61
2022/05/13 07:37:21;;;;;;;2.12;1.10;;;;;;;23.09;25.00;101779.55;1881211;76;21139;-61
2022/05/13 07:42:36;;;;;;;5.25;1.25;;;;;;;23.61;24.98;101792.15;1881234;76;21042;-61
2022/05/13 07:45:06;;;;;;;5.53;1.00;;;;;;;23.62;24.43;101788.97;1881062;76;21010;-62
2022/05/13 07:47:35;;;;;;;5.22;1.20;;;;;;;23.25;24.49;101791.80;1881229;76;21088;-63
2022/05/13 07:50:04;;;;;;;3.10;1.00;;;;;;;23.24;24.73;101775.30;1881276;76;21073;-60
2022/05/13 07:52:33;;;;;;;1.10;0.40;;;;;;;23.49;24.53;101789.91;1881323;76;21127;-64
2022/05/13 07:55:02;;;;;;;4.50;1.20;;;;;;;23.21;24.56;101779.58;1881349;76;20997;-62
2022/05/13 07:57:30;;;;;;;2.50;0.93;;;;;;;23.08;24.68;101769.76;1881221;76;21046;-65
2022/05/13 08:02:45;;;;;;;2.90;1.00;;;;;;;23.24;24.62;101791.41;1880761;76;21048;-66
2022/05/13 08:05:14;;;;;;;1.85;1.10;;;;;;;23.15;24.85;101778.22;1879874;76;21098;-64
2022/05/13 08:07:43;;;;;;;4.45;1.20;;;;;;;23.17;24.81;101799.59;1880174;76;21119;-63
2022/05/13 08:10:13;;;;;;;5.58;1.40;;;;;;;23.17;24.82;101759.30;1880396;76;21256;-64
2022/05/13 08:12:43;;;;;;;10.25;1.40;;;;;;;22.95;25.12;101775.66;1877942;76;21418;-65
2022/05/13 08:15:13;;;;;;;1.70;1.22;;;;;;;22.65;25.19;101779.66;1880482;76;21019;-64
2022/05/13 08:17:41;;;;;;;4.83;0.95;;;;;;;22.66;25.70;101762.57;1881303;76;21121;-63
2022/05/13 08:20:11;;;;;;;2.33;1.22;;;;;;;22.87;25.92;101784.30;1881249;76;21117;-62
2022/05/13 08:22:40;;;;;;;2.25;1.10;;;;;;;23.09;25.48;101772.83;1870705;76;21048;-61
2022/05/13 08:25:10;;;;;;;2.52;1.00;;;;;;;23.29;25.30;101767.75;1869192;77;21002;-61
2022/05/13 08:27:38;;;;;;;4.83;1.00;;;;;;;23.25;25.08;101772.99;1869432;77;20991;-61
2022/05/13 08:30:09;;;;;;;1.70;1.27;;;;;;;23.36;25.50;101764.95;1869175;77;20979;-61
2022/05/13 08:32:38;;;;;;;2.55;0.95;;;;;;;23.63;25.29;101778.59;1869415;77;21015;-61
2022/05/13 08:35:07;;;;;;;2.22;1.10;;;;;;;23.89;25.31;101765.81;1869571;77;21445;-62
2022/05/13 08:37:45;;;;;;;2.60;0.90;;;;;;;23.93;25.03;101740.38;1869374;77;21097;-62
2022/05/13 08:40:28;;;;;;;9.13;0.98;;;;;;;23.96;24.93;101760.78;1869318;76;21335;-62
2022/05/13 08:42:58;;;;;;;1.10;0.80;;;;;;;23.92;25.04;101774.11;1869230;77;21062;-61
2022/05/13 08:45:27;;;;;;;5.47;0.90;;;;;;;23.97;24.69;101757.97;1869343;77;21441;-62
2022/05/13 08:47:59;;;;;;;0.53;0.53;;;;;;;23.77;25.09;101774.30;1869386;76;20999;-62
2022/05/13 08:50:43;;;;;;;3.20;1.00;;;;;;;23.95;25.39;101764.47;1869232;77;21049;-61
2022/05/13 08:53:29;;;;;;;6.33;1.07;;;;;;;24.10;24.71;101790.13;1868345;76;21130;-62
2022/05/13 08:56:10;;;;;;;1.67;1.07;;;;;;;23.87;25.23;101767.77;1869279;76;21096;-61
2022/05/13 08:58:41;;;;;;;1.70;0.90;;;;;;;23.68;25.48;101776.37;1868701;77;21500;-62
2022/05/13 09:01:15;;;;;;;2.05;0.80;;;;;;;24.01;25.52;101742.45;1869280;75;21002;-62
2022/05/13 09:03:50;;;;;;;3.92;1.17;;;;;;;23.98;25.36;101763.73;1869319;77;21139;-61
2022/05/13 09:06:21;;;;;;;3.92;1.05;;;;;;;23.88;25.55;101766.31;1869296;76;21084;-62
2022/05/13 09:08:50;;;;;;;1.77;0.80;;;;;;;23.96;25.52;101770.19;1868584;75;21050;-63
2022/05/13 09:11:40;;;;;;;1.98;1.20;;;;;;;23.94;25.13;101764.96;1869209;77;21050;-61
2022/05/13 09:14:18;;;;;;;2.65;1.00;;;;;;;23.96;25.45;101772.41;1869248;76;21050;-61
2022/05/13 09:17:10;;;;;;;1.15;0.80;;;;;;;23.98;25.13;101767.77;1868752;76;21031;-59
2022/05/13 09:19:45;;;;;;;7.47;1.15;;;;;;;23.79;25.22;101758.06;1869210;76;21649;-60
2022/05/13 09:22:14;;;;;;;2.98;0.98;;;;;;;23.54;25.74;101752.43;1868348;76;21066;-61
2022/05/13 09:24:45;;;;;;;3.37;0.90;;;;;;;23.45;25.35;101757.53;1869452;77;21474;-61
2022/05/13 09:27:14;;;;;;;1.57;0.75;;;;;;;23.40;25.43;101751.64;1869235;77;21077;-61
2022/05/13 09:29:46;;;;;;;1.30;0.80;;;;;;;23.43;25.90;101733.95;1869344;77;21507;-62
2022/05/13 09:32:18;;;;;;;1.17;0.70;;;;;;;23.44;25.71;101750.46;1869652;77;21425;-61
2022/05/13 09:34:52;;;;;;;3.47;1.40;;;;;;;23.35;25.82;101736.39;1868647;76;21073;-61
2022/05/13 09:37:23;;;;;;;5.65;0.90;;;;;;;23.22;25.79;101739.63;1868928;76;21100;-61
2022/05/13 09:40:12;;;;;;;2.67;1.20;;;;;;;23.17;26.11;101752.09;1869432;77;21463;-60
2022/05/13 09:42:46;;;;;;;2.77;1.12;;;;;;;23.19;26.43;101747.95;1869286;77;21018;-61
2022/05/13 09:45:27;;;;;;;1.02;0.62;;;;;;;23.10;25.78;101720.80;1869227;77;21117;-61
2022/05/13 09:48:13;;;;;;;2.35;1.20;;;;;;;23.16;26.17;101756.23;1866055;76;21080;-60
2022/05/13 09:50:42;;;;;;;3.52;1.00;;;;;;;23.17;25.96;101734.63;1868436;76;21046;-62
2022/05/13 09:53:25;;;;;;;1.07;0.62;;;;;;;23.11;26.05;101753.42;1869426;77;21068;-60
2022/05/13 09:56:02;;;;;;;2.33;1.20;;;;;;;23.10;26.30;101763.78;1868695;76;21145;-60
2022/05/13 09:58:37;;;;;;;5.00;1.42;;;;;;;23.03;25.39;101757.12;1869531;77;21092;-60
2022/05/13 10:01:13;;;;;;;2.50;1.32;;;;;;;22.83;25.83;101741.66;1867693;76;21073;-61
2022/05/13 10:03:44;;;;;;;7.78;1.50;;;;;;;22.60;25.73;101752.30;1869413;77;21449;-61
2022/05/13 10:06:16;;;;;;;2.67;1.05;;;;;;;22.33;25.07;101726.51;1867186;76;21489;-61
2022/05/13 10:08:53;;;;;;;3.27;0.90;;;;;;;22.30;25.60;101745.53;1869419;77;20986;-61
2022/05/13 10:14:31;;;;;;;2.50;0.82;;;;;;;21.92;25.02;101723.63;1869356;77;20999;-61
2022/05/13 10:17:02;;;;;;;4.35;1.40;;;;;;;21.74;25.91;101738.34;1869393;77;21034;-61
2022/05/13 10:19:37;;;;;;;2.35;0.90;;;;;;;21.70;25.91;101738.20;1869184;75;21001;-61
2022/05/13 10:22:23;;;;;;;1.77;0.82;;;;;;;21.66;25.78;101703.20;1869346;76;21488;-62
2022/05/13 10:25:16;;;;;;;2.70;1.02;;;;;;;21.45;26.02;101714.47;1869166;76;21602;-62
2022/05/13 10:30:53;;;;;;;4.05;0.98;;;;;;;21.44;26.52;101711.37;1897311;74;21546;-61
2022/05/13 10:33:47;;;;;;;7.22;1.17;;;;;;;21.33;26.84;101725.98;1904680;75;21515;-62
2022/05/13 10:36:37;;;;;;;2.15;1.17;;;;;;;21.44;26.10;101729.27;1935340;74;21020;-61
2022/05/13 10:39:30;;;;;;;3.67;1.25;;;;;;;21.31;26.34;101689.92;1935342;72;21060;-61
2022/05/13 10:42:02;;;;;;;5.55;1.57;;;;;;;21.17;26.13;101731.06;1963148;72;21015;-61
2022/05/13 10:44:54;;;;;;;6.08;0.93;;;;;;;21.04;25.96;101718.11;1967032;72;21414;-62
2022/05/13 10:47:29;;;;;;;1.70;0.80;;;;;;;21.06;26.18;101707.30;1967245;73;21493;-62
2022/05/13 10:49:59;;;;;;;1.62;0.88;;;;;;;21.10;26.41;101686.92;1967217;73;21481;-61
2022/05/13 10:52:48;;;;;;;4.58;1.20;;;;;;;21.02;26.59;101726.73;1964889;73;21018;-61
2022/05/13 10:55:36;;;;;;;7.72;1.20;;;;;;;20.75;26.17;101730.31;1967002;73;21446;-61
2022/05/13 10:58:31;;;;;;;6.00;1.00;;;;;;;20.53;26.50;101661.28;1966988;73;21433;-62
2022/05/13 11:01:05;;;;;;;2.77;1.00;;;;;;;20.35;26.64;101687.41;1941838;73;21121;-62
2022/05/13 11:03:57;;;;;;;3.35;1.00;;;;;;;20.20;27.07;101696.45;1940354;73;21514;-62
2022/05/13 11:06:42;;;;;;;2.27;0.90;;;;;;;20.11;26.87;101703.23;1964710;73;21030;-61
2022/05/13 11:09:25;;;;;;;3.05;1.17;;;;;;;19.94;27.60;101704.31;1967003;72;21003;-61
2022/05/13 11:11:57;;;;;;;5.00;1.85;;;;;;;19.92;26.91;101705.34;1967079;73;21026;-62
2022/05/13 11:14:34;;;;;;;6.10;1.60;;;;;;;19.94;27.00;101664.22;1967058;73;21421;-61
2022/05/13 11:17:25;;;;;;;2.45;1.20;;;;;;;19.95;27.11;101689.97;1964543;71;21124;-61
2022/05/13 11:20:03;;;;;;;8.95;1.17;;;;;;;19.89;26.92;101681.51;1967145;72;21133;-61
2022/05/13 11:22:40;;;;;;;4.85;1.20;;;;;;;19.83;27.88;101677.41;1949921;73;21477;-62
2022/05/13 11:28:32;;;;;;;2.77;1.00;;;;;;;19.76;27.47;101660.05;1964693;73;21002;-62
2022/05/13 11:31:25;;;;;;;3.83;1.35;;;;;;;19.81;27.29;101673.98;1966915;73;21137;-62
2022/05/13 11:33:56;;;;;;;2.58;0.75;;;;;;;19.80;27.72;101683.79;1967128;73;21410;-61
2022/05/13 11:36:28;;;;;;;3.08;1.30;;;;;;;19.80;28.10;101625.00;1967034;73;21031;-61
2022/05/13 11:39:19;;;;;;;5.70;1.37;;;;;;;19.79;27.86;101690.56;1964678;71;21042;-64
2022/05/13 11:41:53;;;;;;;10.58;1.47;;;;;;;19.72;27.20;101674.53;1967100;73;21461;-60
2022/05/13 11:44:25;;;;;;;1.05;0.85;;;;;;;19.65;27.84;101677.56;1964652;73;21019;-60
2022/05/13 11:47:19;;;;;;;2.30;0.85;;;;;;;19.63;28.01;101647.91;1966965;72;21027;-61
2022/05/13 11:49:49;;;;;;;2.20;1.12;;;;;;;19.64;27.75;101600.17;1967071;73;21030;-61
2022/05/13 11:52:21;;;;;;;5.58;1.30;;;;;;;19.63;28.37;101668.79;1967102;73;21051;-62
2022/05/13 11:54:51;;;;;;;3.45;1.12;;;;;;;19.72;28.14;101662.50;1964695;73;21014;-62
2022/05/13 11:57:27;;;;;;;4.97;1.00;;;;;;;19.65;27.74;101645.50;1967251;73;21027;-61
2022/05/13 11:59:58;;;;;;;2.70;1.27;;;;;;;19.61;28.07;101657.83;1966861;73;21458;-62
2022/05/13 12:02:33;;;;;;;0.80;0.80;;;;;;;19.57;28.08;101630.45;1952177;73;21463;-61
2022/05/13 12:05:19;;;;;;;4.60;1.45;;;;;;;19.59;28.38;101666.42;1935327;73;21036;-61
2022/05/13 12:08:09;;;;;;;5.40;1.22;;;;;;;19.53;28.12;101586.20;1935298;73;21028;-62
2022/05/13 12:11:05;;;;;;;2.62;0.82;;;;;;;19.48;28.14;101651.06;1935393;74;21479;-62
2022/05/13 12:13:51;;;;;;;8.00;1.00;;;;;;;19.52;28.35;101629.02;1937332;73;20992;-62
2022/05/13 12:16:55;;;;;;;1.70;0.70;;;;;;;19.51;28.34;101565.37;1935967;73;21113;-62
2022/05/13 12:19:45;;;;;;;0.60;0.60;;;;;;;19.51;28.45;101656.19;1935529;74;21101;-62
2022/05/13 12:22:37;;;;;;;2.45;0.95;;;;;;;19.41;29.16;101660.40;1901495;74;21646;-62
2022/05/13 12:25:14;;;;;;;3.05;0.70;;;;;;;19.46;28.71;101655.64;1859735;77;21632;-62